sensor_id;sensor_type;location;lat;lon;timestamp;pressure;altitude;pressure_sealevel;temperature;humidity
21706;BME280;11014;53.076;18.208;2023-06-22T00:01:05;101477.59;;;23.65;66.99
21706;BME280;11014;53.076;18.208;2023-06-22T00:03:35;101479.50;;;23.64;67.09
21706;BME280;11014;53.076;18.208;2023-06-22T00:06:04;101476.47;;;23.66;67.07
21706;BME280;11014;53.076;18.208;2023-06-22T00:08:33;101479.97;;;23.71;66.75
21706;BME280;11014;53.076;18.208;2023-06-22T00:11:01;101484.56;;;23.76;66.92
21706;BME280;11014;53.076;18.208;2023-06-22T00:13:46;101487.28;;;23.76;66.95
21706;BME280;11014;53.076;18.208;2023-06-22T00:16:28;101492.78;;;23.76;67.05
21706;BME280;11014;53.076;18.208;2023-06-22T00:19:10;101498.84;;;23.73;67.19
21706;BME280;11014;53.076;18.208;2023-06-22T00:21:39;101503.84;;;23.71;67.58
21706;BME280;11014;53.076;18.208;2023-06-22T00:24:08;101509.31;;;23.71;67.46
21706;BME280;11014;53.076;18.208;2023-06-22T00:26:36;101497.84;;;23.69;67.68
21706;BME280;11014;53.076;18.208;2023-06-22T00:29:08;101498.34;;;23.71;67.46
21706;BME280;11014;53.076;18.208;2023-06-22T00:31:37;101493.88;;;23.75;67.27
21706;BME280;11014;53.076;18.208;2023-06-22T00:34:06;101501.53;;;23.78;67.04
21706;BME280;11014;53.076;18.208;2023-06-22T00:36:56;101495.94;;;23.83;66.81
21706;BME280;11014;53.076;18.208;2023-06-22T00:39:25;101493.75;;;23.85;66.94
21706;BME280;11014;53.076;18.208;2023-06-22T00:42:09;101503.59;;;23.86;66.72
21706;BME280;11014;53.076;18.208;2023-06-22T00:44:37;101498.09;;;23.86;66.67
21706;BME280;11014;53.076;18.208;2023-06-22T00:47:07;101502.78;;;23.85;66.81
21706;BME280;11014;53.076;18.208;2023-06-22T00:49:35;101511.31;;;23.84;67.28
21706;BME280;11014;53.076;18.208;2023-06-22T00:55:42;101515.63;;;23.71;68.29
21706;BME280;11014;53.076;18.208;2023-06-22T00:58:12;101502.84;;;23.62;68.84
21706;BME280;11014;53.076;18.208;2023-06-22T01:00:41;101509.53;;;23.55;68.72
21706;BME280;11014;53.076;18.208;2023-06-22T01:03:10;101505.75;;;23.51;68.63
21706;BME280;11014;53.076;18.208;2023-06-22T01:05:39;101509.09;;;23.48;68.74
21706;BME280;11014;53.076;18.208;2023-06-22T01:08:12;101503.38;;;23.45;68.92
21706;BME280;11014;53.076;18.208;2023-06-22T01:10:50;101506.41;;;23.43;68.93
21706;BME280;11014;53.076;18.208;2023-06-22T01:16:32;101507.00;;;23.40;68.73
21706;BME280;11014;53.076;18.208;2023-06-22T01:19:04;101501.00;;;23.38;68.88
21706;BME280;11014;53.076;18.208;2023-06-22T01:21:51;101513.63;;;23.34;68.75
21706;BME280;11014;53.076;18.208;2023-06-22T01:24:54;101515.84;;;23.32;69.42
21706;BME280;11014;53.076;18.208;2023-06-22T01:30:02;101510.72;;;23.26;69.33
21706;BME280;11014;53.076;18.208;2023-06-22T01:32:51;101511.53;;;23.26;68.96
21706;BME280;11014;53.076;18.208;2023-06-22T01:35:33;101509.88;;;23.25;69.23
21706;BME280;11014;53.076;18.208;2023-06-22T01:38:02;101509.88;;;23.25;68.74
21706;BME280;11014;53.076;18.208;2023-06-22T01:40:31;101506.06;;;23.26;68.81
21706;BME280;11014;53.076;18.208;2023-06-22T01:43:02;101507.69;;;23.27;68.79
21706;BME280;11014;53.076;18.208;2023-06-22T01:45:31;101508.28;;;23.24;68.62
21706;BME280;11014;53.076;18.208;2023-06-22T01:47:59;101501.22;;;23.18;68.78
21706;BME280;11014;53.076;18.208;2023-06-22T01:50:29;101511.16;;;23.14;68.70
21706;BME280;11014;53.076;18.208;2023-06-22T01:52:57;101509.56;;;23.08;68.92
21706;BME280;11014;53.076;18.208;2023-06-22T01:55:27;101505.78;;;23.04;68.87
21706;BME280;11014;53.076;18.208;2023-06-22T01:57:55;101506.66;;;22.99;68.85
21706;BME280;11014;53.076;18.208;2023-06-22T02:00:24;101507.56;;;22.90;69.01
21706;BME280;11014;53.076;18.208;2023-06-22T02:02:57;101504.84;;;22.90;68.79
21706;BME280;11014;53.076;18.208;2023-06-22T02:05:37;101508.75;;;22.84;68.47
21706;BME280;11014;53.076;18.208;2023-06-22T02:08:07;101517.00;;;22.79;68.59
21706;BME280;11014;53.076;18.208;2023-06-22T02:10:37;101518.72;;;22.75;68.78
21706;BME280;11014;53.076;18.208;2023-06-22T02:13:06;101507.81;;;22.70;68.85
21706;BME280;11014;53.076;18.208;2023-06-22T02:15:36;101513.63;;;22.63;69.06
21706;BME280;11014;53.076;18.208;2023-06-22T02:18:05;101508.47;;;22.57;69.08
21706;BME280;11014;53.076;18.208;2023-06-22T02:20:36;101510.72;;;22.50;69.39
21706;BME280;11014;53.076;18.208;2023-06-22T02:23:05;101518.97;;;22.44;69.63
21706;BME280;11014;53.076;18.208;2023-06-22T02:25:36;101521.19;;;22.42;69.73
21706;BME280;11014;53.076;18.208;2023-06-22T02:28:04;101521.47;;;22.41;69.66
21706;BME280;11014;53.076;18.208;2023-06-22T02:30:33;101531.13;;;22.33;69.85
21706;BME280;11014;53.076;18.208;2023-06-22T02:33:01;101538.28;;;22.24;69.54
21706;BME280;11014;53.076;18.208;2023-06-22T02:35:30;101546.75;;;22.28;69.49
21706;BME280;11014;53.076;18.208;2023-06-22T02:38:31;101543.16;;;22.32;68.91
21706;BME280;11014;53.076;18.208;2023-06-22T02:41:44;101543.19;;;22.27;69.00
21706;BME280;11014;53.076;18.208;2023-06-22T02:44:12;101546.25;;;22.26;68.88
21706;BME280;11014;53.076;18.208;2023-06-22T02:46:41;101543.78;;;22.24;68.85
21706;BME280;11014;53.076;18.208;2023-06-22T02:49:10;101544.06;;;22.23;68.66
21706;BME280;11014;53.076;18.208;2023-06-22T02:51:45;101544.91;;;22.23;68.69
21706;BME280;11014;53.076;18.208;2023-06-22T02:54:31;101553.09;;;22.23;68.28
21706;BME280;11014;53.076;18.208;2023-06-22T02:57:20;101543.78;;;22.24;68.34
21706;BME280;11014;53.076;18.208;2023-06-22T02:59:49;101545.97;;;22.22;68.31
21706;BME280;11014;53.076;18.208;2023-06-22T03:02:17;101553.66;;;22.20;68.58
21706;BME280;11014;53.076;18.208;2023-06-22T03:04:46;101556.41;;;22.20;68.81
21706;BME280;11014;53.076;18.208;2023-06-22T03:07:32;101558.06;;;22.16;68.85
21706;BME280;11014;53.076;18.208;2023-06-22T03:10:01;101560.28;;;22.14;68.71
21706;BME280;11014;53.076;18.208;2023-06-22T03:12:29;101564.41;;;22.12;69.08
21706;BME280;11014;53.076;18.208;2023-06-22T03:14:58;101567.13;;;22.12;68.96
21706;BME280;11014;53.076;18.208;2023-06-22T03:17:26;101566.31;;;22.11;68.94
21706;BME280;11014;53.076;18.208;2023-06-22T03:19:55;101569.09;;;22.06;69.38
21706;BME280;11014;53.076;18.208;2023-06-22T03:22:23;101578.38;;;22.10;69.17
21706;BME280;11014;53.076;18.208;2023-06-22T03:24:56;101578.38;;;22.10;69.36
21706;BME280;11014;53.076;18.208;2023-06-22T03:27:25;101577.81;;;22.08;69.27
21706;BME280;11014;53.076;18.208;2023-06-22T03:30:08;101581.69;;;22.02;69.60
21706;BME280;11014;53.076;18.208;2023-06-22T03:32:54;101583.38;;;21.98;69.62
21706;BME280;11014;53.076;18.208;2023-06-22T03:35:23;101573.25;;;21.99;69.67
21706;BME280;11014;53.076;18.208;2023-06-22T03:37:52;101587.94;;;22.08;69.04
21706;BME280;11014;53.076;18.208;2023-06-22T03:40:34;101580.53;;;22.13;68.69
21706;BME280;11014;53.076;18.208;2023-06-22T03:43:17;101596.94;;;22.13;68.48
21706;BME280;11014;53.076;18.208;2023-06-22T03:45:46;101588.47;;;22.15;68.45
21706;BME280;11014;53.076;18.208;2023-06-22T03:48:15;101599.63;;;22.23;68.19
21706;BME280;11014;53.076;18.208;2023-06-22T03:50:44;101599.59;;;22.28;67.98
21706;BME280;11014;53.076;18.208;2023-06-22T03:53:12;101610.78;;;22.32;68.03
21706;BME280;11014;53.076;18.208;2023-06-22T03:55:48;101608.84;;;22.37;67.81
21706;BME280;11014;53.076;18.208;2023-06-22T03:58:18;101609.31;;;22.44;67.38
21706;BME280;11014;53.076;18.208;2023-06-22T04:00:52;101608.22;;;22.46;67.25
21706;BME280;11014;53.076;18.208;2023-06-22T04:03:20;101612.31;;;22.48;66.75
21706;BME280;11014;53.076;18.208;2023-06-22T04:05:49;101602.63;;;22.61;67.62
21706;BME280;11014;53.076;18.208;2023-06-22T04:08:17;101603.63;;;22.75;66.72
21706;BME280;11014;53.076;18.208;2023-06-22T04:10:46;101605.16;;;22.86;67.43
21706;BME280;11014;53.076;18.208;2023-06-22T04:13:15;101606.06;;;23.05;66.75
21706;BME280;11014;53.076;18.208;2023-06-22T04:15:43;101615.25;;;23.19;66.51
21706;BME280;11014;53.076;18.208;2023-06-22T04:18:12;101612.06;;;23.31;66.25
21706;BME280;11014;53.076;18.208;2023-06-22T04:20:56;101603.97;;;23.49;66.58
21706;BME280;11014;53.076;18.208;2023-06-22T04:23:24;101605.09;;;23.67;65.73
21706;BME280;11014;53.076;18.208;2023-06-22T04:25:54;101609.66;;;23.77;65.19
21706;BME280;11014;53.076;18.208;2023-06-22T04:28:26;101610.69;;;23.81;65.18
21706;BME280;11014;53.076;18.208;2023-06-22T04:30:55;101607.59;;;23.87;64.54
21706;BME280;11014;53.076;18.208;2023-06-22T04:33:26;101608.31;;;23.93;65.18
21706;BME280;11014;53.076;18.208;2023-06-22T04:36:21;101605.59;;;23.93;62.94
21706;BME280;11014;53.076;18.208;2023-06-22T04:38:50;101613.34;;;23.86;63.49
21706;BME280;11014;53.076;18.208;2023-06-22T04:41:20;101606.94;;;23.72;63.24
21706;BME280;11014;53.076;18.208;2023-06-22T04:44:07;101608.72;;;23.63;63.24
21706;BME280;11014;53.076;18.208;2023-06-22T04:46:36;101597.75;;;23.63;63.44
21706;BME280;11014;53.076;18.208;2023-06-22T04:49:08;101601.59;;;23.62;63.50
21706;BME280;11014;53.076;18.208;2023-06-22T04:51:40;101601.31;;;23.63;63.52
21706;BME280;11014;53.076;18.208;2023-06-22T04:54:09;101607.66;;;23.58;62.97
21706;BME280;11014;53.076;18.208;2023-06-22T04:56:39;101602.66;;;23.66;62.83
21706;BME280;11014;53.076;18.208;2023-06-22T04:59:08;101601.59;;;23.62;63.06
21706;BME280;11014;53.076;18.208;2023-06-22T05:01:41;101616.66;;;23.64;62.80
21706;BME280;11014;53.076;18.208;2023-06-22T05:04:10;101612.50;;;23.67;62.91
21706;BME280;11014;53.076;18.208;2023-06-22T05:06:38;101615.78;;;23.69;62.68
21706;BME280;11014;53.076;18.208;2023-06-22T05:09:08;101625.19;;;23.63;62.71
21706;BME280;11014;53.076;18.208;2023-06-22T05:11:37;101621.50;;;23.72;62.63
21706;BME280;11014;53.076;18.208;2023-06-22T05:14:06;101628.31;;;23.75;62.39
21706;BME280;11014;53.076;18.208;2023-06-22T05:16:41;101625.53;;;23.80;62.45
21706;BME280;11014;53.076;18.208;2023-06-22T05:19:10;101628.53;;;23.78;62.16
21706;BME280;11014;53.076;18.208;2023-06-22T05:21:56;101644.19;;;23.78;62.63
21706;BME280;11014;53.076;18.208;2023-06-22T05:24:24;101652.97;;;23.80;62.20
21706;BME280;11014;53.076;18.208;2023-06-22T05:26:52;101645.44;;;23.85;62.09
21706;BME280;11014;53.076;18.208;2023-06-22T05:29:21;101640.47;;;23.69;62.06
21706;BME280;11014;53.076;18.208;2023-06-22T05:31:51;101634.13;;;23.92;62.22
21706;BME280;11014;53.076;18.208;2023-06-22T05:34:19;101638.22;;;23.94;61.91
21706;BME280;11014;53.076;18.208;2023-06-22T05:36:48;101649.03;;;24.04;61.34
21706;BME280;11014;53.076;18.208;2023-06-22T05:39:16;101643.22;;;24.11;61.44
21706;BME280;11014;53.076;18.208;2023-06-22T05:41:45;101659.78;;;24.25;61.22
21706;BME280;11014;53.076;18.208;2023-06-22T05:44:14;101653.25;;;24.39;61.20
21706;BME280;11014;53.076;18.208;2023-06-22T05:46:43;101656.66;;;24.50;60.96
21706;BME280;11014;53.076;18.208;2023-06-22T05:49:12;101651.97;;;24.50;60.26
21706;BME280;11014;53.076;18.208;2023-06-22T05:51:42;101652.41;;;24.57;60.44
21706;BME280;11014;53.076;18.208;2023-06-22T05:54:10;101650.78;;;24.56;60.30
21706;BME280;11014;53.076;18.208;2023-06-22T05:56:41;101659.63;;;24.53;59.62
21706;BME280;11014;53.076;18.208;2023-06-22T05:59:10;101645.81;;;24.58;59.38
21706;BME280;11014;53.076;18.208;2023-06-22T06:01:38;101643.31;;;24.75;59.34
21706;BME280;11014;53.076;18.208;2023-06-22T06:04:20;101641.09;;;24.77;59.08
21706;BME280;11014;53.076;18.208;2023-06-22T06:06:49;101644.28;;;24.85;58.84
21706;BME280;11014;53.076;18.208;2023-06-22T06:09:17;101644.78;;;24.87;58.30
21706;BME280;11014;53.076;18.208;2023-06-22T06:11:46;101643.81;;;24.96;58.39
21706;BME280;11014;53.076;18.208;2023-06-22T06:14:14;101648.72;;;24.99;58.51
21706;BME280;11014;53.076;18.208;2023-06-22T06:16:43;101642.91;;;25.01;58.03
21706;BME280;11014;53.076;18.208;2023-06-22T06:19:11;101641.59;;;25.12;58.58
21706;BME280;11014;53.076;18.208;2023-06-22T06:21:39;101644.25;;;25.17;57.70
21706;BME280;11014;53.076;18.208;2023-06-22T06:24:07;101644.69;;;25.24;57.45
21706;BME280;11014;53.076;18.208;2023-06-22T06:26:36;101644.28;;;25.30;57.48
21706;BME280;11014;53.076;18.208;2023-06-22T06:29:04;101646.03;;;25.40;57.37
21706;BME280;11014;53.076;18.208;2023-06-22T06:31:33;101645.91;;;25.18;56.63
21706;BME280;11014;53.076;18.208;2023-06-22T06:34:01;101654.97;;;25.32;56.45
21706;BME280;11014;53.076;18.208;2023-06-22T06:36:30;101671.78;;;25.44;56.30
21706;BME280;11014;53.076;18.208;2023-06-22T06:38:59;101664.59;;;25.48;56.01
21706;BME280;11014;53.076;18.208;2023-06-22T06:41:28;101659.59;;;25.64;56.38
21706;BME280;11014;53.076;18.208;2023-06-22T06:43:56;101662.25;;;25.55;55.67
21706;BME280;11014;53.076;18.208;2023-06-22T06:46:25;101656.25;;;25.53;55.42
21706;BME280;11014;53.076;18.208;2023-06-22T06:48:53;101651.66;;;25.62;55.59
21706;BME280;11014;53.076;18.208;2023-06-22T06:51:21;101648.19;;;25.70;55.68
21706;BME280;11014;53.076;18.208;2023-06-22T06:53:50;101650.84;;;25.75;55.15
21706;BME280;11014;53.076;18.208;2023-06-22T06:56:18;101648.59;;;25.77;54.84
21706;BME280;11014;53.076;18.208;2023-06-22T06:58:47;101644.72;;;25.78;53.93
21706;BME280;11014;53.076;18.208;2023-06-22T07:01:15;101637.34;;;25.87;54.42
21706;BME280;11014;53.076;18.208;2023-06-22T07:03:49;101641.22;;;26.00;54.28
21706;BME280;11014;53.076;18.208;2023-06-22T07:06:17;101642.63;;;26.11;53.85
21706;BME280;11014;53.076;18.208;2023-06-22T07:08:46;101651.00;;;26.20;53.53
21706;BME280;11014;53.076;18.208;2023-06-22T07:11:14;101655.78;;;26.28;53.12
21706;BME280;11014;53.076;18.208;2023-06-22T07:13:43;101648.50;;;26.32;52.64
21706;BME280;11014;53.076;18.208;2023-06-22T07:16:11;101644.13;;;26.31;51.39
21706;BME280;11014;53.076;18.208;2023-06-22T07:18:40;101642.78;;;26.42;51.99
21706;BME280;11014;53.076;18.208;2023-06-22T07:21:08;101646.03;;;26.44;51.56
21706;BME280;11014;53.076;18.208;2023-06-22T07:23:42;101640.06;;;26.50;50.43
21706;BME280;11014;53.076;18.208;2023-06-22T07:26:10;101646.38;;;26.51;49.81
21706;BME280;11014;53.076;18.208;2023-06-22T07:28:41;101643.91;;;26.63;49.92
21706;BME280;11014;53.076;18.208;2023-06-22T07:31:10;101644.41;;;26.65;49.41
21706;BME280;11014;53.076;18.208;2023-06-22T07:33:38;101645.41;;;26.47;49.27
21706;BME280;11014;53.076;18.208;2023-06-22T07:36:07;101654.44;;;26.61;48.85
21706;BME280;11014;53.076;18.208;2023-06-22T07:38:36;101659.97;;;26.70;48.29
21706;BME280;11014;53.076;18.208;2023-06-22T07:41:04;101655.69;;;26.77;48.53
21706;BME280;11014;53.076;18.208;2023-06-22T07:43:33;101664.56;;;26.74;48.14
21706;BME280;11014;53.076;18.208;2023-06-22T07:46:05;101667.09;;;26.84;48.07
21706;BME280;11014;53.076;18.208;2023-06-22T07:48:36;101671.63;;;26.80;47.16
21706;BME280;11014;53.076;18.208;2023-06-22T07:51:13;101664.88;;;26.95;47.24
21706;BME280;11014;53.076;18.208;2023-06-22T07:53:43;101673.09;;;27.08;46.67
21706;BME280;11014;53.076;18.208;2023-06-22T07:56:12;101674.44;;;27.20;46.45
21706;BME280;11014;53.076;18.208;2023-06-22T07:58:40;101663.94;;;27.30;46.57
21706;BME280;11014;53.076;18.208;2023-06-22T08:01:09;101665.78;;;27.35;45.78
21706;BME280;11014;53.076;18.208;2023-06-22T08:03:37;101658.81;;;27.37;46.82
21706;BME280;11014;53.076;18.208;2023-06-22T08:06:07;101660.47;;;27.47;45.39
21706;BME280;11014;53.076;18.208;2023-06-22T08:08:38;101673.97;;;27.57;45.57
21706;BME280;11014;53.076;18.208;2023-06-22T08:11:21;101678.81;;;27.43;44.14
21706;BME280;11014;53.076;18.208;2023-06-22T08:13:57;101667.97;;;27.55;44.65
21706;BME280;11014;53.076;18.208;2023-06-22T08:17:04;101670.47;;;27.65;44.39
21706;BME280;11014;53.076;18.208;2023-06-22T08:19:33;101675.00;;;27.61;44.21
21706;BME280;11014;53.076;18.208;2023-06-22T08:22:03;101677.28;;;27.76;43.00
21706;BME280;11014;53.076;18.208;2023-06-22T08:24:33;101679.25;;;27.67;42.47
21706;BME280;11014;53.076;18.208;2023-06-22T08:27:06;101679.75;;;27.78;42.29
21706;BME280;11014;53.076;18.208;2023-06-22T08:29:41;101677.84;;;27.87;43.45
21706;BME280;11014;53.076;18.208;2023-06-22T08:32:15;101682.81;;;27.76;43.03
21706;BME280;11014;53.076;18.208;2023-06-22T08:34:44;101677.66;;;27.83;42.79
21706;BME280;11014;53.076;18.208;2023-06-22T08:37:12;101674.94;;;28.00;43.03
21706;BME280;11014;53.076;18.208;2023-06-22T08:39:41;101672.06;;;28.05;42.27
21706;BME280;11014;53.076;18.208;2023-06-22T08:42:10;101681.16;;;28.14;43.00
21706;BME280;11014;53.076;18.208;2023-06-22T08:44:56;101676.47;;;28.23;42.64
21706;BME280;11014;53.076;18.208;2023-06-22T08:48:04;101676.78;;;28.13;41.54
21706;BME280;11014;53.076;18.208;2023-06-22T08:50:36;101673.38;;;28.25;42.16
21706;BME280;11014;53.076;18.208;2023-06-22T08:53:06;101668.84;;;28.38;42.03
21706;BME280;11014;53.076;18.208;2023-06-22T08:55:36;101673.22;;;28.47;42.18
21706;BME280;11014;53.076;18.208;2023-06-22T08:58:04;101673.22;;;28.56;41.70
21706;BME280;11014;53.076;18.208;2023-06-22T09:00:34;101664.75;;;28.61;41.01
21706;BME280;11014;53.076;18.208;2023-06-22T09:07:09;101672.59;;;28.76;40.52
21706;BME280;11014;53.076;18.208;2023-06-22T09:09:57;101664.78;;;28.78;40.80
21706;BME280;11014;53.076;18.208;2023-06-22T09:16:03;101660.34;;;28.86;41.12
21706;BME280;11014;53.076;18.208;2023-06-22T09:18:31;101663.94;;;28.77;41.17
21706;BME280;11014;53.076;18.208;2023-06-22T09:20:59;101654.03;;;28.85;40.22
21706;BME280;11014;53.076;18.208;2023-06-22T09:23:28;101663.28;;;28.80;40.38
21706;BME280;11014;53.076;18.208;2023-06-22T09:25:57;101658.69;;;29.02;40.16
21706;BME280;11014;53.076;18.208;2023-06-22T09:28:25;101649.53;;;29.18;39.83
21706;BME280;11014;53.076;18.208;2023-06-22T09:30:54;101651.00;;;29.24;38.25
21706;BME280;11014;53.076;18.208;2023-06-22T09:33:52;101644.63;;;29.32;39.08
21706;BME280;11014;53.076;18.208;2023-06-22T09:36:21;101642.97;;;29.40;38.37
21706;BME280;11014;53.076;18.208;2023-06-22T09:38:50;101638.00;;;29.54;39.19
21706;BME280;11014;53.076;18.208;2023-06-22T09:41:24;101637.72;;;29.47;37.85
21706;BME280;11014;53.076;18.208;2023-06-22T09:43:52;101637.97;;;29.63;38.40
21706;BME280;11014;53.076;18.208;2023-06-22T09:46:41;101642.72;;;29.54;37.94
21706;BME280;11014;53.076;18.208;2023-06-22T09:49:09;101642.56;;;29.59;37.40
21706;BME280;11014;53.076;18.208;2023-06-22T09:51:38;101641.78;;;29.50;36.10
21706;BME280;11014;53.076;18.208;2023-06-22T09:54:07;101636.63;;;29.40;36.86
21706;BME280;11014;53.076;18.208;2023-06-22T09:56:36;101636.91;;;29.47;37.18
21706;BME280;11014;53.076;18.208;2023-06-22T09:59:05;101637.72;;;29.47;36.74
21706;BME280;11014;53.076;18.208;2023-06-22T10:01:45;101634.44;;;29.54;35.86
21706;BME280;11014;53.076;18.208;2023-06-22T10:04:14;101636.41;;;29.53;36.10
21706;BME280;11014;53.076;18.208;2023-06-22T10:06:42;101641.31;;;29.77;37.16
21706;BME280;11014;53.076;18.208;2023-06-22T10:09:10;101640.69;;;30.01;38.32
21706;BME280;11014;53.076;18.208;2023-06-22T10:11:39;101640.22;;;30.19;36.04
21706;BME280;11014;53.076;18.208;2023-06-22T10:14:07;101633.81;;;30.27;33.90
21706;BME280;11014;53.076;18.208;2023-06-22T10:16:41;101640.97;;;30.28;34.18
21706;BME280;11014;53.076;18.208;2023-06-22T10:19:32;101631.81;;;30.36;36.14
21706;BME280;11014;53.076;18.208;2023-06-22T10:22:01;101628.81;;;30.41;34.60
21706;BME280;11014;53.076;18.208;2023-06-22T10:24:30;101627.03;;;30.58;36.83
21706;BME280;11014;53.076;18.208;2023-06-22T10:26:59;101639.06;;;30.62;35.01
21706;BME280;11014;53.076;18.208;2023-06-22T10:29:27;101624.53;;;30.65;35.49
21706;BME280;11014;53.076;18.208;2023-06-22T10:31:56;101628.50;;;30.76;35.43
21706;BME280;11014;53.076;18.208;2023-06-22T10:34:27;101626.72;;;30.92;35.82
21706;BME280;11014;53.076;18.208;2023-06-22T10:36:55;101622.28;;;30.91;34.73
21706;BME280;11014;53.076;18.208;2023-06-22T10:39:26;101627.09;;;31.02;34.72
21706;BME280;11014;53.076;18.208;2023-06-22T10:41:55;101626.63;;;31.13;35.12
21706;BME280;11014;53.076;18.208;2023-06-22T10:44:24;101623.06;;;31.24;34.68
21706;BME280;11014;53.076;18.208;2023-06-22T10:46:53;101617.97;;;31.38;35.70
21706;BME280;11014;53.076;18.208;2023-06-22T10:49:21;101609.41;;;31.43;35.09
21706;BME280;11014;53.076;18.208;2023-06-22T10:51:49;101614.31;;;31.46;34.22
21706;BME280;11014;53.076;18.208;2023-06-22T10:54:18;101614.31;;;31.46;34.30
21706;BME280;11014;53.076;18.208;2023-06-22T10:56:48;101618.91;;;31.42;34.34
21706;BME280;11014;53.076;18.208;2023-06-22T10:59:17;101608.03;;;31.37;33.38
21706;BME280;11014;53.076;18.208;2023-06-22T11:02:08;101608.94;;;31.29;33.57
21706;BME280;11014;53.076;18.208;2023-06-22T11:04:38;101597.97;;;31.33;33.24
21706;BME280;11014;53.076;18.208;2023-06-22T11:07:06;101606.19;;;31.41;34.19
21706;BME280;11014;53.076;18.208;2023-06-22T11:09:35;101602.50;;;31.49;33.77
21706;BME280;11014;53.076;18.208;2023-06-22T11:12:03;101598.81;;;31.57;33.61
21706;BME280;11014;53.076;18.208;2023-06-22T11:14:33;101606.41;;;31.73;33.05
21706;BME280;11014;53.076;18.208;2023-06-22T11:17:02;101600.16;;;31.88;34.28
21706;BME280;11014;53.076;18.208;2023-06-22T11:19:31;101595.50;;;32.04;32.78
21706;BME280;11014;53.076;18.208;2023-06-22T11:21:59;101608.94;;;32.02;32.27
21706;BME280;11014;53.076;18.208;2023-06-22T11:24:28;101612.75;;;32.09;32.49
21706;BME280;11014;53.076;18.208;2023-06-22T11:26:56;101602.47;;;31.86;32.62
21706;BME280;11014;53.076;18.208;2023-06-22T11:29:27;101607.56;;;31.84;33.07
21706;BME280;11014;53.076;18.208;2023-06-22T11:34:58;101597.63;;;31.71;31.72
21706;BME280;11014;53.076;18.208;2023-06-22T11:37:26;101603.63;;;31.85;32.72
21706;BME280;11014;53.076;18.208;2023-06-22T11:39:56;101595.28;;;31.73;32.12
21706;BME280;11014;53.076;18.208;2023-06-22T11:43:07;101593.66;;;31.96;32.16
21706;BME280;11014;53.076;18.208;2023-06-22T11:45:37;101598.84;;;32.09;33.23
21706;BME280;11014;53.076;18.208;2023-06-22T11:48:12;101595.22;;;32.21;31.38
21706;BME280;11014;53.076;18.208;2023-06-22T11:50:41;101593.69;;;32.23;31.99
21706;BME280;11014;53.076;18.208;2023-06-22T11:53:09;101604.88;;;31.99;31.33
21706;BME280;11014;53.076;18.208;2023-06-22T11:55:38;101597.75;;;32.26;31.93
21706;BME280;11014;53.076;18.208;2023-06-22T11:58:07;101592.78;;;32.47;32.76
21706;BME280;11014;53.076;18.208;2023-06-22T12:00:53;101596.25;;;32.56;30.88
21706;BME280;11014;53.076;18.208;2023-06-22T12:03:23;101591.06;;;32.70;31.31
21706;BME280;11014;53.076;18.208;2023-06-22T12:06:04;101591.53;;;32.72;31.14
21706;BME280;11014;53.076;18.208;2023-06-22T12:08:48;101583.88;;;32.69;29.55
21706;BME280;11014;53.076;18.208;2023-06-22T12:11:16;101582.78;;;32.58;29.90
21706;BME280;11014;53.076;18.208;2023-06-22T12:13:44;101571.13;;;32.68;29.88
21706;BME280;11014;53.076;18.208;2023-06-22T12:16:13;101570.53;;;32.47;29.34
21706;BME280;11014;53.076;18.208;2023-06-22T12:18:56;101562.16;;;32.59;30.59
21706;BME280;11014;53.076;18.208;2023-06-22T12:21:40;101559.63;;;32.54;29.63
21706;BME280;11014;53.076;18.208;2023-06-22T12:24:09;101555.91;;;32.78;30.01
21706;BME280;11014;53.076;18.208;2023-06-22T12:26:53;101556.06;;;32.69;29.51
21706;BME280;11014;53.076;18.208;2023-06-22T12:29:23;101567.38;;;32.76;28.85
21706;BME280;11014;53.076;18.208;2023-06-22T12:31:54;101560.75;;;32.97;27.80
21706;BME280;11014;53.076;18.208;2023-06-22T12:34:22;101558.69;;;33.75;28.19
21706;BME280;11014;53.076;18.208;2023-06-22T12:36:51;101558.63;;;34.90;26.93
21706;BME280;11014;53.076;18.208;2023-06-22T12:39:22;101550.59;;;35.90;24.37
21706;BME280;11014;53.076;18.208;2023-06-22T12:41:50;101546.09;;;36.89;24.76
21706;BME280;11014;53.076;18.208;2023-06-22T12:44:19;101558.69;;;37.64;23.36
21706;BME280;11014;53.076;18.208;2023-06-22T12:46:48;101560.13;;;38.12;23.07
21706;BME280;11014;53.076;18.208;2023-06-22T12:49:16;101543.88;;;38.78;22.92
21706;BME280;11014;53.076;18.208;2023-06-22T12:51:45;101533.78;;;39.68;22.93
21706;BME280;11014;53.076;18.208;2023-06-22T12:54:14;101529.78;;;40.49;22.51
21706;BME280;11014;53.076;18.208;2023-06-22T12:56:43;101521.88;;;41.26;21.12
21706;BME280;11014;53.076;18.208;2023-06-22T12:59:13;101530.25;;;41.70;19.47
21706;BME280;11014;53.076;18.208;2023-06-22T13:01:41;101519.84;;;41.97;20.20
21706;BME280;11014;53.076;18.208;2023-06-22T13:04:12;101518.34;;;42.20;19.68
21706;BME280;11014;53.076;18.208;2023-06-22T13:06:42;101512.78;;;42.13;18.20
21706;BME280;11014;53.076;18.208;2023-06-22T13:09:11;101510.72;;;42.17;19.46
21706;BME280;11014;53.076;18.208;2023-06-22T13:11:42;101505.34;;;42.26;18.16
21706;BME280;11014;53.076;18.208;2023-06-22T13:14:11;101511.00;;;42.26;17.98
21706;BME280;11014;53.076;18.208;2023-06-22T13:16:39;101510.22;;;42.75;18.38
21706;BME280;11014;53.076;18.208;2023-06-22T13:19:08;101511.41;;;43.01;17.68
21706;BME280;11014;53.076;18.208;2023-06-22T13:21:37;101508.97;;;43.46;17.73
21706;BME280;11014;53.076;18.208;2023-06-22T13:24:07;101499.81;;;43.58;17.59